sensor_id;sensor_type;location;lat;lon;timestamp;P1;durP1;ratioP1;P2;durP2;ratioP2
45392;SDS011;31129;44.810;10.334;2023-06-14T00:01:49;13.38;;;8.80;;
45392;SDS011;31129;44.810;10.334;2023-06-14T00:04:15;23.27;;;10.38;;
45392;SDS011;31129;44.810;10.334;2023-06-14T00:06:45;12.77;;;9.25;;
45392;SDS011;31129;44.810;10.334;2023-06-14T00:09:12;17.38;;;8.13;;
45392;SDS011;31129;44.810;10.334;2023-06-14T00:11:41;14.80;;;8.63;;
45392;SDS011;31129;44.810;10.334;2023-06-14T00:14:06;20.02;;;9.48;;
45392;SDS011;31129;44.810;10.334;2023-06-14T00:16:32;15.98;;;9.20;;
45392;SDS011;31129;44.810;10.334;2023-06-14T00:18:58;14.55;;;8.90;;
45392;SDS011;31129;44.810;10.334;2023-06-14T00:21:24;14.13;;;9.90;;
45392;SDS011;31129;44.810;10.334;2023-06-14T00:23:50;20.20;;;10.68;;
45392;SDS011;31129;44.810;10.334;2023-06-14T00:26:15;17.67;;;9.50;;
45392;SDS011;31129;44.810;10.334;2023-06-14T00:28:43;17.70;;;10.00;;
45392;SDS011;31129;44.810;10.334;2023-06-14T00:31:08;19.85;;;10.63;;
45392;SDS011;31129;44.810;10.334;2023-06-14T00:33:33;19.08;;;10.00;;
45392;SDS011;31129;44.810;10.334;2023-06-14T00:35:59;16.40;;;9.45;;
45392;SDS011;31129;44.810;10.334;2023-06-14T00:38:25;15.30;;;9.40;;
45392;SDS011;31129;44.810;10.334;2023-06-14T00:40:50;13.27;;;9.40;;
45392;SDS011;31129;44.810;10.334;2023-06-14T00:43:16;13.95;;;8.95;;
45392;SDS011;31129;44.810;10.334;2023-06-14T00:45:42;12.55;;;8.10;;
45392;SDS011;31129;44.810;10.334;2023-06-14T00:48:07;15.20;;;7.05;;
45392;SDS011;31129;44.810;10.334;2023-06-14T00:50:34;9.43;;;6.38;;
45392;SDS011;31129;44.810;10.334;2023-06-14T00:53:00;16.60;;;6.53;;
45392;SDS011;31129;44.810;10.334;2023-06-14T00:55:26;10.95;;;5.68;;
45392;SDS011;31129;44.810;10.334;2023-06-14T00:57:54;13.63;;;5.90;;
45392;SDS011;31129;44.810;10.334;2023-06-14T01:00:21;13.52;;;7.18;;
45392;SDS011;31129;44.810;10.334;2023-06-14T01:02:47;10.65;;;6.35;;
45392;SDS011;31129;44.810;10.334;2023-06-14T01:05:12;17.65;;;7.10;;
45392;SDS011;31129;44.810;10.334;2023-06-14T01:13:24;17.35;;;6.25;;
45392;SDS011;31129;44.810;10.334;2023-06-14T01:15:54;14.60;;;6.80;;
45392;SDS011;31129;44.810;10.334;2023-06-14T01:18:22;11.10;;;6.30;;
45392;SDS011;31129;44.810;10.334;2023-06-14T01:20:49;10.55;;;6.47;;
45392;SDS011;31129;44.810;10.334;2023-06-14T01:23:18;11.52;;;6.63;;
45392;SDS011;31129;44.810;10.334;2023-06-14T01:25:45;11.40;;;6.43;;
45392;SDS011;31129;44.810;10.334;2023-06-14T01:28:12;13.32;;;6.78;;
45392;SDS011;31129;44.810;10.334;2023-06-14T01:30:42;8.88;;;5.32;;
45392;SDS011;31129;44.810;10.334;2023-06-14T01:33:13;12.23;;;5.30;;
45392;SDS011;31129;44.810;10.334;2023-06-14T01:35:44;15.63;;;5.57;;
45392;SDS011;31129;44.810;10.334;2023-06-14T01:38:13;11.57;;;5.38;;
45392;SDS011;31129;44.810;10.334;2023-06-14T01:40:39;16.35;;;5.10;;
45392;SDS011;31129;44.810;10.334;2023-06-14T01:43:07;10.55;;;5.10;;
45392;SDS011;31129;44.810;10.334;2023-06-14T01:45:35;12.50;;;5.55;;
45392;SDS011;31129;44.810;10.334;2023-06-14T01:48:02;11.85;;;5.68;;
45392;SDS011;31129;44.810;10.334;2023-06-14T01:50:29;10.40;;;4.47;;
45392;SDS011;31129;44.810;10.334;2023-06-14T01:52:56;9.82;;;4.78;;
45392;SDS011;31129;44.810;10.334;2023-06-14T01:55:22;10.05;;;4.88;;
45392;SDS011;31129;44.810;10.334;2023-06-14T01:57:50;13.40;;;4.75;;
45392;SDS011;31129;44.810;10.334;2023-06-14T02:00:16;12.18;;;4.78;;
45392;SDS011;31129;44.810;10.334;2023-06-14T02:02:43;9.45;;;4.38;;
45392;SDS011;31129;44.810;10.334;2023-06-14T02:05:09;9.70;;;4.50;;
45392;SDS011;31129;44.810;10.334;2023-06-14T02:07:35;9.73;;;4.97;;
45392;SDS011;31129;44.810;10.334;2023-06-14T02:10:02;7.25;;;4.30;;
45392;SDS011;31129;44.810;10.334;2023-06-14T02:12:28;8.05;;;4.28;;
45392;SDS011;31129;44.810;10.334;2023-06-14T02:14:56;6.78;;;4.43;;
45392;SDS011;31129;44.810;10.334;2023-06-14T02:17:23;10.95;;;4.85;;
45392;SDS011;31129;44.810;10.334;2023-06-14T02:19:49;8.23;;;4.32;;
45392;SDS011;31129;44.810;10.334;2023-06-14T02:22:15;10.05;;;4.50;;
45392;SDS011;31129;44.810;10.334;2023-06-14T02:24:42;7.95;;;4.72;;
45392;SDS011;31129;44.810;10.334;2023-06-14T02:27:08;10.50;;;4.72;;
45392;SDS011;31129;44.810;10.334;2023-06-14T02:29:37;7.03;;;4.40;;
45392;SDS011;31129;44.810;10.334;2023-06-14T02:32:04;8.85;;;4.85;;
45392;SDS011;31129;44.810;10.334;2023-06-14T02:34:30;10.32;;;4.10;;
45392;SDS011;31129;44.810;10.334;2023-06-14T02:36:55;11.40;;;5.07;;
45392;SDS011;31129;44.810;10.334;2023-06-14T02:39:22;7.55;;;4.40;;
45392;SDS011;31129;44.810;10.334;2023-06-14T02:41:48;9.48;;;3.88;;
45392;SDS011;31129;44.810;10.334;2023-06-14T02:44:17;11.47;;;4.63;;
45392;SDS011;31129;44.810;10.334;2023-06-14T02:46:43;10.20;;;4.40;;
45392;SDS011;31129;44.810;10.334;2023-06-14T02:49:10;10.70;;;4.37;;
45392;SDS011;31129;44.810;10.334;2023-06-14T02:51:37;14.90;;;5.22;;
45392;SDS011;31129;44.810;10.334;2023-06-14T02:54:02;13.27;;;5.07;;
45392;SDS011;31129;44.810;10.334;2023-06-14T02:56:28;9.88;;;4.90;;
45392;SDS011;31129;44.810;10.334;2023-06-14T02:58:55;8.23;;;5.53;;
45392;SDS011;31129;44.810;10.334;2023-06-14T03:01:21;8.73;;;5.82;;
45392;SDS011;31129;44.810;10.334;2023-06-14T03:03:47;11.18;;;7.97;;
45392;SDS011;31129;44.810;10.334;2023-06-14T03:06:12;16.27;;;8.98;;
45392;SDS011;31129;44.810;10.334;2023-06-14T03:08:42;15.52;;;8.88;;
45392;SDS011;31129;44.810;10.334;2023-06-14T03:11:13;18.52;;;9.63;;
45392;SDS011;31129;44.810;10.334;2023-06-14T03:13:39;11.70;;;9.40;;
45392;SDS011;31129;44.810;10.334;2023-06-14T03:16:06;13.50;;;9.68;;
45392;SDS011;31129;44.810;10.334;2023-06-14T03:18:35;16.42;;;11.80;;
45392;SDS011;31129;44.810;10.334;2023-06-14T03:21:02;14.10;;;11.43;;
45392;SDS011;31129;44.810;10.334;2023-06-14T03:23:29;16.00;;;11.52;;
45392;SDS011;31129;44.810;10.334;2023-06-14T03:25:56;15.15;;;10.82;;
45392;SDS011;31129;44.810;10.334;2023-06-14T03:28:21;16.50;;;9.38;;
45392;SDS011;31129;44.810;10.334;2023-06-14T03:30:48;16.05;;;9.90;;
45392;SDS011;31129;44.810;10.334;2023-06-14T03:33:13;18.33;;;9.80;;
45392;SDS011;31129;44.810;10.334;2023-06-14T03:35:40;16.00;;;11.10;;
45392;SDS011;31129;44.810;10.334;2023-06-14T03:38:07;17.10;;;11.35;;
45392;SDS011;31129;44.810;10.334;2023-06-14T03:40:32;19.00;;;11.15;;
45392;SDS011;31129;44.810;10.334;2023-06-14T03:43:02;13.68;;;10.60;;
45392;SDS011;31129;44.810;10.334;2023-06-14T03:45:28;16.92;;;10.25;;
45392;SDS011;31129;44.810;10.334;2023-06-14T03:47:55;18.15;;;10.15;;
45392;SDS011;31129;44.810;10.334;2023-06-14T03:50:22;14.75;;;9.93;;
45392;SDS011;31129;44.810;10.334;2023-06-14T03:52:49;18.70;;;9.45;;
45392;SDS011;31129;44.810;10.334;2023-06-14T03:58:56;13.23;;;8.88;;
45392;SDS011;31129;44.810;10.334;2023-06-14T04:01:24;15.27;;;9.07;;
45392;SDS011;31129;44.810;10.334;2023-06-14T04:03:54;16.33;;;9.13;;
45392;SDS011;31129;44.810;10.334;2023-06-14T04:06:21;14.70;;;9.77;;
45392;SDS011;31129;44.810;10.334;2023-06-14T04:08:47;17.30;;;8.52;;
45392;SDS011;31129;44.810;10.334;2023-06-14T04:11:14;12.17;;;8.23;;
45392;SDS011;31129;44.810;10.334;2023-06-14T04:13:40;12.90;;;7.28;;
45392;SDS011;31129;44.810;10.334;2023-06-14T04:16:09;9.95;;;6.75;;
45392;SDS011;31129;44.810;10.334;2023-06-14T04:18:35;11.30;;;7.00;;
45392;SDS011;31129;44.810;10.334;2023-06-14T04:21:00;8.60;;;6.55;;
45392;SDS011;31129;44.810;10.334;2023-06-14T04:23:27;11.80;;;7.70;;
45392;SDS011;31129;44.810;10.334;2023-06-14T04:25:53;9.75;;;6.00;;
45392;SDS011;31129;44.810;10.334;2023-06-14T04:28:19;6.28;;;5.10;;
45392;SDS011;31129;44.810;10.334;2023-06-14T04:30:45;8.98;;;5.13;;
45392;SDS011;31129;44.810;10.334;2023-06-14T04:33:13;9.70;;;5.70;;
45392;SDS011;31129;44.810;10.334;2023-06-14T04:35:39;11.07;;;5.82;;
45392;SDS011;31129;44.810;10.334;2023-06-14T04:38:06;12.88;;;5.80;;
45392;SDS011;31129;44.810;10.334;2023-06-14T04:40:35;11.02;;;5.18;;
45392;SDS011;31129;44.810;10.334;2023-06-14T04:43:09;11.65;;;5.00;;
45392;SDS011;31129;44.810;10.334;2023-06-14T04:45:38;13.60;;;5.47;;
45392;SDS011;31129;44.810;10.334;2023-06-14T04:48:05;10.75;;;5.95;;
45392;SDS011;31129;44.810;10.334;2023-06-14T04:50:32;10.48;;;5.28;;
45392;SDS011;31129;44.810;10.334;2023-06-14T04:52:58;13.00;;;4.93;;
45392;SDS011;31129;44.810;10.334;2023-06-14T04:55:25;9.80;;;4.25;;
45392;SDS011;31129;44.810;10.334;2023-06-14T04:57:52;12.00;;;5.28;;
45392;SDS011;31129;44.810;10.334;2023-06-14T05:00:20;9.15;;;5.38;;
45392;SDS011;31129;44.810;10.334;2023-06-14T05:02:46;11.80;;;6.05;;
45392;SDS011;31129;44.810;10.334;2023-06-14T05:05:12;8.65;;;5.00;;
45392;SDS011;31129;44.810;10.334;2023-06-14T05:07:38;14.25;;;5.65;;
45392;SDS011;31129;44.810;10.334;2023-06-14T05:10:04;10.57;;;5.75;;
45392;SDS011;31129;44.810;10.334;2023-06-14T05:12:31;9.20;;;6.32;;
45392;SDS011;31129;44.810;10.334;2023-06-14T05:14:57;11.63;;;6.82;;
45392;SDS011;31129;44.810;10.334;2023-06-14T05:17:24;12.13;;;7.25;;
45392;SDS011;31129;44.810;10.334;2023-06-14T05:19:49;10.05;;;6.82;;
45392;SDS011;31129;44.810;10.334;2023-06-14T05:22:17;12.43;;;8.00;;
45392;SDS011;31129;44.810;10.334;2023-06-14T05:24:43;11.57;;;5.97;;
45392;SDS011;31129;44.810;10.334;2023-06-14T05:27:08;12.05;;;6.35;;
45392;SDS011;31129;44.810;10.334;2023-06-14T05:29:34;16.08;;;6.07;;
45392;SDS011;31129;44.810;10.334;2023-06-14T05:31:59;13.25;;;7.70;;
45392;SDS011;31129;44.810;10.334;2023-06-14T05:34:25;8.73;;;6.45;;
45392;SDS011;31129;44.810;10.334;2023-06-14T05:36:50;15.10;;;6.72;;
45392;SDS011;31129;44.810;10.334;2023-06-14T05:39:16;12.20;;;6.60;;
45392;SDS011;31129;44.810;10.334;2023-06-14T05:41:42;12.13;;;6.28;;
45392;SDS011;31129;44.810;10.334;2023-06-14T05:44:10;11.63;;;7.57;;
45392;SDS011;31129;44.810;10.334;2023-06-14T05:46:36;15.60;;;8.88;;
45392;SDS011;31129;44.810;10.334;2023-06-14T05:49:01;12.52;;;7.95;;
45392;SDS011;31129;44.810;10.334;2023-06-14T05:51:27;10.68;;;8.02;;
45392;SDS011;31129;44.810;10.334;2023-06-14T05:53:52;12.18;;;8.57;;
45392;SDS011;31129;44.810;10.334;2023-06-14T05:56:18;16.92;;;9.25;;
45392;SDS011;31129;44.810;10.334;2023-06-14T05:58:47;10.57;;;8.98;;
45392;SDS011;31129;44.810;10.334;2023-06-14T06:01:13;12.00;;;7.03;;
45392;SDS011;31129;44.810;10.334;2023-06-14T06:03:38;11.57;;;8.65;;
45392;SDS011;31129;44.810;10.334;2023-06-14T06:06:04;13.07;;;7.45;;
45392;SDS011;31129;44.810;10.334;2023-06-14T06:08:30;12.52;;;8.15;;
45392;SDS011;31129;44.810;10.334;2023-06-14T06:10:56;11.57;;;8.73;;
45392;SDS011;31129;44.810;10.334;2023-06-14T06:13:22;12.15;;;8.57;;
45392;SDS011;31129;44.810;10.334;2023-06-14T06:15:48;15.45;;;9.43;;
45392;SDS011;31129;44.810;10.334;2023-06-14T06:18:13;18.70;;;11.98;;
45392;SDS011;31129;44.810;10.334;2023-06-14T06:20:39;13.52;;;9.60;;
45392;SDS011;31129;44.810;10.334;2023-06-14T06:23:05;14.20;;;8.63;;
45392;SDS011;31129;44.810;10.334;2023-06-14T06:25:33;14.55;;;8.93;;
45392;SDS011;31129;44.810;10.334;2023-06-14T06:27:59;11.32;;;7.80;;
45392;SDS011;31129;44.810;10.334;2023-06-14T06:30:24;20.13;;;10.13;;
45392;SDS011;31129;44.810;10.334;2023-06-14T06:32:51;14.90;;;7.03;;
45392;SDS011;31129;44.810;10.334;2023-06-14T06:35:16;11.07;;;8.35;;
45392;SDS011;31129;44.810;10.334;2023-06-14T06:37:42;10.68;;;7.45;;
45392;SDS011;31129;44.810;10.334;2023-06-14T06:40:08;11.30;;;8.23;;
45392;SDS011;31129;44.810;10.334;2023-06-14T06:42:34;18.38;;;6.40;;
45392;SDS011;31129;44.810;10.334;2023-06-14T06:45:04;12.38;;;6.53;;
45392;SDS011;31129;44.810;10.334;2023-06-14T06:47:30;10.00;;;7.88;;
45392;SDS011;31129;44.810;10.334;2023-06-14T06:49:58;13.10;;;8.90;;
45392;SDS011;31129;44.810;10.334;2023-06-14T06:52:24;12.68;;;9.38;;
45392;SDS011;31129;44.810;10.334;2023-06-14T06:54:49;15.80;;;9.65;;
45392;SDS011;31129;44.810;10.334;2023-06-14T06:57:20;13.35;;;8.00;;
45392;SDS011;31129;44.810;10.334;2023-06-14T07:02:13;13.45;;;9.38;;
45392;SDS011;31129;44.810;10.334;2023-06-14T07:04:38;12.07;;;8.90;;
45392;SDS011;31129;44.810;10.334;2023-06-14T07:07:04;15.80;;;8.45;;
45392;SDS011;31129;44.810;10.334;2023-06-14T07:09:29;14.18;;;7.97;;
45392;SDS011;31129;44.810;10.334;2023-06-14T07:11:55;14.77;;;9.23;;
45392;SDS011;31129;44.810;10.334;2023-06-14T07:14:20;11.25;;;7.25;;
45392;SDS011;31129;44.810;10.334;2023-06-14T07:16:47;14.82;;;6.50;;
45392;SDS011;31129;44.810;10.334;2023-06-14T07:19:14;14.25;;;8.45;;
45392;SDS011;31129;44.810;10.334;2023-06-14T07:21:40;13.60;;;7.93;;
45392;SDS011;31129;44.810;10.334;2023-06-14T07:24:06;10.35;;;7.20;;
45392;SDS011;31129;44.810;10.334;2023-06-14T07:26:32;12.63;;;10.00;;
45392;SDS011;31129;44.810;10.334;2023-06-14T07:28:58;12.90;;;10.70;;
45392;SDS011;31129;44.810;10.334;2023-06-14T07:31:24;18.17;;;10.35;;
45392;SDS011;31129;44.810;10.334;2023-06-14T07:33:49;15.13;;;11.63;;
45392;SDS011;31129;44.810;10.334;2023-06-14T07:36:15;16.73;;;12.40;;
45392;SDS011;31129;44.810;10.334;2023-06-14T07:38:40;16.52;;;12.82;;
45392;SDS011;31129;44.810;10.334;2023-06-14T07:41:06;18.88;;;12.77;;
45392;SDS011;31129;44.810;10.334;2023-06-14T07:43:32;20.23;;;14.60;;
45392;SDS011;31129;44.810;10.334;2023-06-14T07:45:57;18.75;;;15.05;;
45392;SDS011;31129;44.810;10.334;2023-06-14T07:48:23;19.25;;;15.93;;
45392;SDS011;31129;44.810;10.334;2023-06-14T07:50:48;23.45;;;19.17;;
45392;SDS011;31129;44.810;10.334;2023-06-14T07:53:14;16.58;;;13.50;;
45392;SDS011;31129;44.810;10.334;2023-06-14T07:55:39;22.95;;;17.77;;
45392;SDS011;31129;44.810;10.334;2023-06-14T07:58:07;29.17;;;17.75;;
45392;SDS011;31129;44.810;10.334;2023-06-14T08:00:33;21.73;;;16.90;;
45392;SDS011;31129;44.810;10.334;2023-06-14T08:02:58;22.60;;;18.73;;
45392;SDS011;31129;44.810;10.334;2023-06-14T08:05:27;25.08;;;18.70;;
45392;SDS011;31129;44.810;10.334;2023-06-14T08:07:54;30.20;;;23.48;;
45392;SDS011;31129;44.810;10.334;2023-06-14T08:10:20;29.33;;;22.40;;
45392;SDS011;31129;44.810;10.334;2023-06-14T08:12:46;33.40;;;23.92;;
45392;SDS011;31129;44.810;10.334;2023-06-14T08:15:13;32.08;;;21.90;;
45392;SDS011;31129;44.810;10.334;2023-06-14T08:17:39;22.13;;;17.50;;
45392;SDS011;31129;44.810;10.334;2023-06-14T08:20:04;22.15;;;16.88;;
45392;SDS011;31129;44.810;10.334;2023-06-14T08:22:31;23.02;;;17.63;;
45392;SDS011;31129;44.810;10.334;2023-06-14T08:27:27;31.88;;;24.88;;
45392;SDS011;31129;44.810;10.334;2023-06-14T08:29:53;35.00;;;24.65;;
45392;SDS011;31129;44.810;10.334;2023-06-14T08:32:18;29.77;;;22.67;;
45392;SDS011;31129;44.810;10.334;2023-06-14T08:34:44;27.45;;;21.65;;
45392;SDS011;31129;44.810;10.334;2023-06-14T08:37:10;26.33;;;21.38;;
45392;SDS011;31129;44.810;10.334;2023-06-14T08:39:38;26.10;;;22.05;;
45392;SDS011;31129;44.810;10.334;2023-06-14T08:42:04;26.48;;;19.13;;
45392;SDS011;31129;44.810;10.334;2023-06-14T08:44:32;25.67;;;22.90;;
45392;SDS011;31129;44.810;10.334;2023-06-14T08:46:57;37.10;;;25.90;;
45392;SDS011;31129;44.810;10.334;2023-06-14T08:49:25;30.87;;;25.80;;
45392;SDS011;31129;44.810;10.334;2023-06-14T08:51:57;34.20;;;26.98;;
45392;SDS011;31129;44.810;10.334;2023-06-14T08:54:25;31.98;;;25.98;;
45392;SDS011;31129;44.810;10.334;2023-06-14T08:56:52;32.92;;;25.98;;
45392;SDS011;31129;44.810;10.334;2023-06-14T08:59:28;27.45;;;24.33;;
45392;SDS011;31129;44.810;10.334;2023-06-14T09:01:56;28.88;;;24.27;;
45392;SDS011;31129;44.810;10.334;2023-06-14T09:04:22;30.52;;;24.25;;
45392;SDS011;31129;44.810;10.334;2023-06-14T09:06:49;31.63;;;21.37;;
45392;SDS011;31129;44.810;10.334;2023-06-14T09:09:21;28.33;;;22.00;;
45392;SDS011;31129;44.810;10.334;2023-06-14T09:11:49;28.60;;;22.23;;
45392;SDS011;31129;44.810;10.334;2023-06-14T09:14:15;26.17;;;20.00;;
45392;SDS011;31129;44.810;10.334;2023-06-14T09:16:40;25.35;;;18.30;;
45392;SDS011;31129;44.810;10.334;2023-06-14T09:19:06;23.48;;;19.27;;
45392;SDS011;31129;44.810;10.334;2023-06-14T09:21:33;21.73;;;17.30;;
45392;SDS011;31129;44.810;10.334;2023-06-14T09:24:01;22.08;;;17.70;;
45392;SDS011;31129;44.810;10.334;2023-06-14T09:26:27;21.60;;;16.35;;
45392;SDS011;31129;44.810;10.334;2023-06-14T09:28:52;20.73;;;16.60;;
45392;SDS011;31129;44.810;10.334;2023-06-14T09:31:19;21.05;;;15.50;;
45392;SDS011;31129;44.810;10.334;2023-06-14T09:33:46;20.10;;;16.17;;
45392;SDS011;31129;44.810;10.334;2023-06-14T09:36:17;18.88;;;13.57;;
45392;SDS011;31129;44.810;10.334;2023-06-14T09:38:55;16.75;;;13.68;;
45392;SDS011;31129;44.810;10.334;2023-06-14T09:41:34;18.25;;;15.23;;
45392;SDS011;31129;44.810;10.334;2023-06-14T09:44:05;20.58;;;14.45;;
45392;SDS011;31129;44.810;10.334;2023-06-14T09:46:32;19.25;;;14.50;;
45392;SDS011;31129;44.810;10.334;2023-06-14T09:48:58;18.98;;;13.82;;
45392;SDS011;31129;44.810;10.334;2023-06-14T09:51:25;13.60;;;12.00;;
45392;SDS011;31129;44.810;10.334;2023-06-14T09:53:51;18.03;;;14.43;;
45392;SDS011;31129;44.810;10.334;2023-06-14T09:56:28;23.70;;;12.27;;
45392;SDS011;31129;44.810;10.334;2023-06-14T09:58:58;11.95;;;10.70;;
45392;SDS011;31129;44.810;10.334;2023-06-14T10:01:24;13.50;;;10.70;;
45392;SDS011;31129;44.810;10.334;2023-06-14T10:03:57;9.88;;;8.82;;
45392;SDS011;31129;44.810;10.334;2023-06-14T10:06:28;11.25;;;8.48;;
45392;SDS011;31129;44.810;10.334;2023-06-14T10:08:58;9.30;;;8.35;;
45392;SDS011;31129;44.810;10.334;2023-06-14T10:11:25;13.77;;;8.50;;
45392;SDS011;31129;44.810;10.334;2023-06-14T10:13:52;9.60;;;8.32;;
45392;SDS011;31129;44.810;10.334;2023-06-14T10:16:24;12.80;;;9.85;;
45392;SDS011;31129;44.810;10.334;2023-06-14T10:22:04;13.95;;;12.38;;
45392;SDS011;31129;44.810;10.334;2023-06-14T10:24:40;16.75;;;13.45;;
45392;SDS011;31129;44.810;10.334;2023-06-14T10:27:07;15.10;;;12.80;;
45392;SDS011;31129;44.810;10.334;2023-06-14T10:32:34;19.80;;;14.18;;
45392;SDS011;31129;44.810;10.334;2023-06-14T10:35:01;14.90;;;13.30;;
45392;SDS011;31129;44.810;10.334;2023-06-14T10:37:30;18.40;;;15.45;;
45392;SDS011;31129;44.810;10.334;2023-06-14T10:39:56;19.88;;;16.05;;
45392;SDS011;31129;44.810;10.334;2023-06-14T10:42:22;21.77;;;15.80;;
45392;SDS011;31129;44.810;10.334;2023-06-14T10:44:57;21.10;;;13.48;;
45392;SDS011;31129;44.810;10.334;2023-06-14T10:50:04;18.98;;;16.60;;
45392;SDS011;31129;44.810;10.334;2023-06-14T10:52:33;18.52;;;14.40;;
45392;SDS011;31129;44.810;10.334;2023-06-14T11:00:07;16.88;;;14.13;;
45392;SDS011;31129;44.810;10.334;2023-06-14T11:05:25;15.73;;;13.45;;
45392;SDS011;31129;44.810;10.334;2023-06-14T11:10:40;17.42;;;13.20;;
45392;SDS011;31129;44.810;10.334;2023-06-14T11:13:07;19.40;;;12.48;;
45392;SDS011;31129;44.810;10.334;2023-06-14T11:15:34;16.50;;;11.30;;
45392;SDS011;31129;44.810;10.334;2023-06-14T11:18:01;16.40;;;12.65;;
45392;SDS011;31129;44.810;10.334;2023-06-14T11:20:29;17.52;;;13.18;;
45392;SDS011;31129;44.810;10.334;2023-06-14T11:22:56;12.93;;;11.30;;
45392;SDS011;31129;44.810;10.334;2023-06-14T11:25:22;11.73;;;9.35;;
45392;SDS011;31129;44.810;10.334;2023-06-14T11:27:51;14.05;;;9.07;;
45392;SDS011;31129;44.810;10.334;2023-06-14T11:30:17;10.55;;;7.50;;
45392;SDS011;31129;44.810;10.334;2023-06-14T11:32:45;10.35;;;9.00;;
45392;SDS011;31129;44.810;10.334;2023-06-14T11:35:15;10.45;;;8.55;;
45392;SDS011;31129;44.810;10.334;2023-06-14T11:37:42;14.20;;;9.53;;
45392;SDS011;31129;44.810;10.334;2023-06-14T11:40:10;15.52;;;7.43;;
45392;SDS011;31129;44.810;10.334;2023-06-14T11:42:38;17.05;;;8.25;;
45392;SDS011;31129;44.810;10.334;2023-06-14T11:45:09;21.23;;;9.75;;
45392;SDS011;31129;44.810;10.334;2023-06-14T11:47:36;13.65;;;8.90;;
45392;SDS011;31129;44.810;10.334;2023-06-14T11:50:03;14.05;;;10.00;;
45392;SDS011;31129;44.810;10.334;2023-06-14T11:52:31;11.05;;;9.68;;
45392;SDS011;31129;44.810;10.334;2023-06-14T11:55:02;14.10;;;9.20;;
45392;SDS011;31129;44.810;10.334;2023-06-14T11:57:30;16.05;;;9.25;;
45392;SDS011;31129;44.810;10.334;2023-06-14T11:59:58;29.60;;;9.45;;
45392;SDS011;31129;44.810;10.334;2023-06-14T12:02:24;13.02;;;8.80;;
45392;SDS011;31129;44.810;10.334;2023-06-14T12:04:50;15.82;;;7.72;;
45392;SDS011;31129;44.810;10.334;2023-06-14T12:07:16;9.70;;;6.88;;
45392;SDS011;31129;44.810;10.334;2023-06-14T12:12:22;10.35;;;5.35;;
45392;SDS011;31129;44.810;10.334;2023-06-14T12:14:50;10.50;;;4.90;;
45392;SDS011;31129;44.810;10.334;2023-06-14T12:17:17;9.98;;;4.68;;
45392;SDS011;31129;44.810;10.334;2023-06-14T12:19:43;5.30;;;4.40;;
45392;SDS011;31129;44.810;10.334;2023-06-14T12:22:11;5.95;;;5.07;;
45392;SDS011;31129;44.810;10.334;2023-06-14T12:24:43;6.03;;;4.63;;
45392;SDS011;31129;44.810;10.334;2023-06-14T12:27:09;5.35;;;4.80;;
45392;SDS011;31129;44.810;10.334;2023-06-14T12:29:37;6.60;;;5.88;;
45392;SDS011;31129;44.810;10.334;2023-06-14T12:32:02;10.07;;;5.22;;
45392;SDS011;31129;44.810;10.334;2023-06-14T12:34:28;4.68;;;3.72;;
45392;SDS011;31129;44.810;10.334;2023-06-14T12:36:54;3.97;;;3.38;;
45392;SDS011;31129;44.810;10.334;2023-06-14T12:39:20;4.35;;;3.33;;
45392;SDS011;31129;44.810;10.334;2023-06-14T12:41:46;7.03;;;3.30;;
45392;SDS011;31129;44.810;10.334;2023-06-14T12:44:12;6.38;;;3.67;;
45392;SDS011;31129;44.810;10.334;2023-06-14T12:46:41;5.60;;;3.47;;
45392;SDS011;31129;44.810;10.334;2023-06-14T12:49:08;7.00;;;4.50;;
45392;SDS011;31129;44.810;10.334;2023-06-14T12:51:37;9.20;;;5.97;;
45392;SDS011;31129;44.810;10.334;2023-06-14T12:54:04;7.67;;;5.63;;
45392;SDS011;31129;44.810;10.334;2023-06-14T12:56:32;5.65;;;4.38;;
45392;SDS011;31129;44.810;10.334;2023-06-14T12:58:58;9.15;;;6.03;;
45392;SDS011;31129;44.810;10.334;2023-06-14T13:01:24;10.55;;;5.10;;
45392;SDS011;31129;44.810;10.334;2023-06-14T13:03:50;6.55;;;5.22;;
45392;SDS011;31129;44.810;10.334;2023-06-14T13:06:16;11.98;;;6.03;;
45392;SDS011;31129;44.810;10.334;2023-06-14T13:08:42;10.65;;;5.78;;
45392;SDS011;31129;44.810;10.334;2023-06-14T13:11:08;7.82;;;5.00;;
45392;SDS011;31129;44.810;10.334;2023-06-14T13:13:34;5.82;;;4.38;;
45392;SDS011;31129;44.810;10.334;2023-06-14T13:15:59;8.23;;;4.72;;
45392;SDS011;31129;44.810;10.334;2023-06-14T13:18:25;9.73;;;5.55;;
45392;SDS011;31129;44.810;10.334;2023-06-14T13:20:51;5.40;;;4.63;;
45392;SDS011;31129;44.810;10.334;2023-06-14T13:23:20;6.40;;;4.20;;
45392;SDS011;31129;44.810;10.334;2023-06-14T13:25:45;7.70;;;4.60;;
45392;SDS011;31129;44.810;10.334;2023-06-14T13:28:11;8.63;;;4.25;;
45392;SDS011;31129;44.810;10.334;2023-06-14T13:30:36;5.40;;;4.07;;
45392;SDS011;31129;44.810;10.334;2023-06-14T13:33:02;6.35;;;4.13;;
45392;SDS011;31129;44.810;10.334;2023-06-14T13:35:27;6.57;;;3.78;;
45392;SDS011;31129;44.810;10.334;2023-06-14T13:37:56;8.60;;;4.15;;
45392;SDS011;31129;44.810;10.334;2023-06-14T13:40:21;5.60;;;4.05;;
45392;SDS011;31129;44.810;10.334;2023-06-14T13:42:47;6.50;;;3.92;;
45392;SDS011;31129;44.810;10.334;2023-06-14T13:45:13;7.15;;;4.43;;
45392;SDS011;31129;44.810;10.334;2023-06-14T13:47:38;7.53;;;4.60;;
45392;SDS011;31129;44.810;10.334;2023-06-14T13:50:04;5.00;;;4.35;;
45392;SDS011;31129;44.810;10.334;2023-06-14T13:52:31;5.95;;;4.13;;
45392;SDS011;31129;44.810;10.334;2023-06-14T13:54:56;7.85;;;4.20;;
45392;SDS011;31129;44.810;10.334;2023-06-14T13:57:22;11.55;;;4.38;;
45392;SDS011;31129;44.810;10.334;2023-06-14T13:59:47;6.88;;;3.80;;
45392;SDS011;31129;44.810;10.334;2023-06-14T14:02:13;5.68;;;3.80;;
45392;SDS011;31129;44.810;10.334;2023-06-14T14:04:39;5.38;;;3.83;;
45392;SDS011;31129;44.810;10.334;2023-06-14T14:07:05;15.98;;;5.50;;
45392;SDS011;31129;44.810;10.334;2023-06-14T14:09:32;6.28;;;3.70;;
45392;SDS011;31129;44.810;10.334;2023-06-14T14:11:59;4.95;;;4.07;;
45392;SDS011;31129;44.810;10.334;2023-06-14T14:14:26;6.47;;;3.97;;
45392;SDS011;31129;44.810;10.334;2023-06-14T14:16:52;3.50;;;3.20;;
45392;SDS011;31129;44.810;10.334;2023-06-14T14:19:19;4.75;;;2.65;;
45392;SDS011;31129;44.810;10.334;2023-06-14T14:21:51;5.43;;;3.10;;
45392;SDS011;31129;44.810;10.334;2023-06-14T14:24:21;5.72;;;3.08;;
45392;SDS011;31129;44.810;10.334;2023-06-14T14:26:51;7.57;;;3.88;;
45392;SDS011;31129;44.810;10.334;2023-06-14T14:29:18;6.30;;;3.65;;
45392;SDS011;31129;44.810;10.334;2023-06-14T14:31:45;5.43;;;3.40;;
45392;SDS011;31129;44.810;10.334;2023-06-14T14:34:11;3.65;;;3.30;;
45392;SDS011;31129;44.810;10.334;2023-06-14T14:36:36;5.57;;;3.75;;
45392;SDS011;31129;44.810;10.334;2023-06-14T14:39:03;8.27;;;3.90;;
45392;SDS011;31129;44.810;10.334;2023-06-14T14:41:29;7.53;;;3.78;;
45392;SDS011;31129;44.810;10.334;2023-06-14T14:43:55;9.82;;;3.92;;
45392;SDS011;31129;44.810;10.334;2023-06-14T14:46:21;6.78;;;4.10;;
45392;SDS011;31129;44.810;10.334;2023-06-14T14:48:46;7.40;;;4.13;;
45392;SDS011;31129;44.810;10.334;2023-06-14T14:51:12;8.50;;;3.55;;
45392;SDS011;31129;44.810;10.334;2023-06-14T14:53:37;4.47;;;3.70;;
45392;SDS011;31129;44.810;10.334;2023-06-14T14:56:03;6.20;;;3.85;;